sensor_id;sensor_type;location;lat;lon;timestamp;temperature;humidity
2577;DHT22;1298;51.252;6.802;2022-10-31T00:02:40;14.30;99.90
2577;DHT22;1298;51.252;6.802;2022-10-31T00:05:29;14.30;99.90
2577;DHT22;1298;51.252;6.802;2022-10-31T00:08:15;14.20;99.90
2577;DHT22;1298;51.252;6.802;2022-10-31T00:11:00;14.30;99.90
2577;DHT22;1298;51.252;6.802;2022-10-31T00:13:46;14.20;99.90
2577;DHT22;1298;51.252;6.802;2022-10-31T00:16:32;14.20;99.90
2577;DHT22;1298;51.252;6.802;2022-10-31T00:19:18;14.20;99.90
2577;DHT22;1298;51.252;6.802;2022-10-31T00:22:04;14.20;99.90
2577;DHT22;1298;51.252;6.802;2022-10-31T00:24:51;14.20;99.90
2577;DHT22;1298;51.252;6.802;2022-10-31T00:27:36;14.30;99.90
2577;DHT22;1298;51.252;6.802;2022-10-31T00:30:22;14.40;99.90
2577;DHT22;1298;51.252;6.802;2022-10-31T00:33:08;14.40;99.90
2577;DHT22;1298;51.252;6.802;2022-10-31T00:35:54;14.50;99.90
2577;DHT22;1298;51.252;6.802;2022-10-31T00:38:41;14.50;99.90
2577;DHT22;1298;51.252;6.802;2022-10-31T00:41:28;14.40;99.90
2577;DHT22;1298;51.252;6.802;2022-10-31T00:44:14;14.40;99.90
2577;DHT22;1298;51.252;6.802;2022-10-31T00:47:04;14.40;99.90
2577;DHT22;1298;51.252;6.802;2022-10-31T00:49:50;14.40;99.90
2577;DHT22;1298;51.252;6.802;2022-10-31T00:52:36;14.40;99.90
2577;DHT22;1298;51.252;6.802;2022-10-31T00:55:21;14.40;99.90
2577;DHT22;1298;51.252;6.802;2022-10-31T00:58:07;14.30;99.90
2577;DHT22;1298;51.252;6.802;2022-10-31T01:00:52;14.30;99.90
2577;DHT22;1298;51.252;6.802;2022-10-31T01:03:41;14.40;99.90
2577;DHT22;1298;51.252;6.802;2022-10-31T01:06:26;14.30;99.90
2577;DHT22;1298;51.252;6.802;2022-10-31T01:09:11;14.40;99.90
2577;DHT22;1298;51.252;6.802;2022-10-31T01:11:57;14.40;99.90
2577;DHT22;1298;51.252;6.802;2022-10-31T01:14:42;14.40;99.90
2577;DHT22;1298;51.252;6.802;2022-10-31T01:17:28;14.40;99.90
2577;DHT22;1298;51.252;6.802;2022-10-31T01:20:15;14.40;99.90
2577;DHT22;1298;51.252;6.802;2022-10-31T01:23:01;14.30;99.90
2577;DHT22;1298;51.252;6.802;2022-10-31T01:25:46;14.30;99.90
2577;DHT22;1298;51.252;6.802;2022-10-31T01:28:32;14.30;99.90
2577;DHT22;1298;51.252;6.802;2022-10-31T01:31:18;14.30;99.90
2577;DHT22;1298;51.252;6.802;2022-10-31T01:34:04;14.30;99.90
2577;DHT22;1298;51.252;6.802;2022-10-31T01:36:51;14.20;99.90
2577;DHT22;1298;51.252;6.802;2022-10-31T01:39:37;14.20;99.90
2577;DHT22;1298;51.252;6.802;2022-10-31T01:42:23;14.10;99.90
2577;DHT22;1298;51.252;6.802;2022-10-31T01:45:09;14.10;99.90
2577;DHT22;1298;51.252;6.802;2022-10-31T01:47:57;14.10;99.90
2577;DHT22;1298;51.252;6.802;2022-10-31T01:50:42;14.00;99.90
2577;DHT22;1298;51.252;6.802;2022-10-31T01:53:29;13.90;99.90
2577;DHT22;1298;51.252;6.802;2022-10-31T01:56:16;13.90;99.90
2577;DHT22;1298;51.252;6.802;2022-10-31T01:59:03;13.90;99.90
2577;DHT22;1298;51.252;6.802;2022-10-31T02:01:50;13.80;99.90
2577;DHT22;1298;51.252;6.802;2022-10-31T02:04:36;13.70;99.90
2577;DHT22;1298;51.252;6.802;2022-10-31T02:07:23;13.70;99.90
2577;DHT22;1298;51.252;6.802;2022-10-31T02:10:12;13.60;99.90
2577;DHT22;1298;51.252;6.802;2022-10-31T02:12:57;13.50;99.90
2577;DHT22;1298;51.252;6.802;2022-10-31T02:15:45;13.40;99.90
2577;DHT22;1298;51.252;6.802;2022-10-31T02:18:32;13.40;99.90
2577;DHT22;1298;51.252;6.802;2022-10-31T02:21:22;13.40;99.90
2577;DHT22;1298;51.252;6.802;2022-10-31T02:24:15;13.40;99.90
2577;DHT22;1298;51.252;6.802;2022-10-31T02:27:21;13.40;99.90
2577;DHT22;1298;51.252;6.802;2022-10-31T02:30:11;13.30;99.90
2577;DHT22;1298;51.252;6.802;2022-10-31T02:33:10;13.30;99.90
2577;DHT22;1298;51.252;6.802;2022-10-31T02:36:01;13.40;99.90
2577;DHT22;1298;51.252;6.802;2022-10-31T02:38:54;13.30;99.90
2577;DHT22;1298;51.252;6.802;2022-10-31T02:41:46;13.40;99.90
2577;DHT22;1298;51.252;6.802;2022-10-31T02:44:37;13.40;99.90
2577;DHT22;1298;51.252;6.802;2022-10-31T02:47:26;13.40;99.90
2577;DHT22;1298;51.252;6.802;2022-10-31T02:50:17;13.50;99.90
2577;DHT22;1298;51.252;6.802;2022-10-31T02:53:03;13.50;99.90
2577;DHT22;1298;51.252;6.802;2022-10-31T02:55:51;13.60;99.90
2577;DHT22;1298;51.252;6.802;2022-10-31T02:58:42;13.60;99.90
2577;DHT22;1298;51.252;6.802;2022-10-31T03:01:40;13.70;99.90
2577;DHT22;1298;51.252;6.802;2022-10-31T03:04:43;13.70;99.90
2577;DHT22;1298;51.252;6.802;2022-10-31T03:07:34;13.60;99.90
2577;DHT22;1298;51.252;6.802;2022-10-31T03:10:31;13.60;99.90
2577;DHT22;1298;51.252;6.802;2022-10-31T03:13:20;13.50;99.90
2577;DHT22;1298;51.252;6.802;2022-10-31T03:16:10;13.50;99.90
2577;DHT22;1298;51.252;6.802;2022-10-31T03:18:57;13.50;99.90
2577;DHT22;1298;51.252;6.802;2022-10-31T03:21:47;13.50;99.90
2577;DHT22;1298;51.252;6.802;2022-10-31T03:24:36;13.40;99.90
2577;DHT22;1298;51.252;6.802;2022-10-31T03:27:24;13.40;99.90
2577;DHT22;1298;51.252;6.802;2022-10-31T03:30:11;13.40;99.90
2577;DHT22;1298;51.252;6.802;2022-10-31T03:32:59;13.40;99.90
2577;DHT22;1298;51.252;6.802;2022-10-31T03:35:46;13.40;99.90
2577;DHT22;1298;51.252;6.802;2022-10-31T03:38:34;13.40;99.90
2577;DHT22;1298;51.252;6.802;2022-10-31T03:41:21;13.40;99.90
2577;DHT22;1298;51.252;6.802;2022-10-31T03:44:12;13.30;99.90
2577;DHT22;1298;51.252;6.802;2022-10-31T03:47:00;13.30;99.90
2577;DHT22;1298;51.252;6.802;2022-10-31T03:49:49;13.30;99.90
2577;DHT22;1298;51.252;6.802;2022-10-31T03:52:39;13.30;99.90
2577;DHT22;1298;51.252;6.802;2022-10-31T03:55:28;13.30;99.90
2577;DHT22;1298;51.252;6.802;2022-10-31T03:58:20;13.30;99.90
2577;DHT22;1298;51.252;6.802;2022-10-31T04:01:06;13.30;99.90
2577;DHT22;1298;51.252;6.802;2022-10-31T04:03:55;13.30;99.90
2577;DHT22;1298;51.252;6.802;2022-10-31T04:06:42;13.30;99.90
2577;DHT22;1298;51.252;6.802;2022-10-31T04:09:33;13.30;99.90
2577;DHT22;1298;51.252;6.802;2022-10-31T04:12:19;13.30;99.90
2577;DHT22;1298;51.252;6.802;2022-10-31T04:15:07;13.30;99.90
2577;DHT22;1298;51.252;6.802;2022-10-31T04:17:55;13.30;99.90
2577;DHT22;1298;51.252;6.802;2022-10-31T04:20:42;13.30;99.90
2577;DHT22;1298;51.252;6.802;2022-10-31T04:23:29;13.30;99.90
2577;DHT22;1298;51.252;6.802;2022-10-31T04:26:15;13.20;99.90
2577;DHT22;1298;51.252;6.802;2022-10-31T04:29:00;13.20;99.90
2577;DHT22;1298;51.252;6.802;2022-10-31T04:31:45;13.20;99.90
2577;DHT22;1298;51.252;6.802;2022-10-31T04:34:31;13.20;99.90
2577;DHT22;1298;51.252;6.802;2022-10-31T04:37:16;13.20;99.90
2577;DHT22;1298;51.252;6.802;2022-10-31T04:40:03;13.20;99.90
2577;DHT22;1298;51.252;6.802;2022-10-31T04:42:49;13.30;99.90
2577;DHT22;1298;51.252;6.802;2022-10-31T04:45:34;13.30;99.90
2577;DHT22;1298;51.252;6.802;2022-10-31T04:48:20;13.30;99.90
2577;DHT22;1298;51.252;6.802;2022-10-31T04:51:05;13.30;99.90
2577;DHT22;1298;51.252;6.802;2022-10-31T04:53:51;13.30;99.90
2577;DHT22;1298;51.252;6.802;2022-10-31T04:56:38;13.20;99.90
2577;DHT22;1298;51.252;6.802;2022-10-31T04:59:23;13.10;99.90
2577;DHT22;1298;51.252;6.802;2022-10-31T05:02:08;13.10;99.90
2577;DHT22;1298;51.252;6.802;2022-10-31T05:04:54;13.20;99.90
2577;DHT22;1298;51.252;6.802;2022-10-31T05:07:39;13.30;99.90
2577;DHT22;1298;51.252;6.802;2022-10-31T05:10:27;13.30;99.90
2577;DHT22;1298;51.252;6.802;2022-10-31T05:13:14;13.20;99.90
2577;DHT22;1298;51.252;6.802;2022-10-31T05:16:00;13.30;99.90
2577;DHT22;1298;51.252;6.802;2022-10-31T05:18:45;13.30;99.90
2577;DHT22;1298;51.252;6.802;2022-10-31T05:21:30;13.30;99.90
2577;DHT22;1298;51.252;6.802;2022-10-31T05:24:16;13.30;99.90
2577;DHT22;1298;51.252;6.802;2022-10-31T05:27:01;13.30;99.90
2577;DHT22;1298;51.252;6.802;2022-10-31T05:29:48;13.30;99.90
2577;DHT22;1298;51.252;6.802;2022-10-31T05:32:36;13.30;99.90
2577;DHT22;1298;51.252;6.802;2022-10-31T05:35:24;13.30;99.90
2577;DHT22;1298;51.252;6.802;2022-10-31T05:38:09;13.30;99.90
2577;DHT22;1298;51.252;6.802;2022-10-31T05:40:54;13.30;99.90
2577;DHT22;1298;51.252;6.802;2022-10-31T05:43:41;13.30;99.90
2577;DHT22;1298;51.252;6.802;2022-10-31T05:46:28;13.30;99.90
2577;DHT22;1298;51.252;6.802;2022-10-31T05:49:13;13.40;99.90
2577;DHT22;1298;51.252;6.802;2022-10-31T05:51:58;13.30;99.90
2577;DHT22;1298;51.252;6.802;2022-10-31T05:54:43;13.30;99.90
2577;DHT22;1298;51.252;6.802;2022-10-31T05:57:31;13.30;99.90
2577;DHT22;1298;51.252;6.802;2022-10-31T06:00:17;13.30;99.90
2577;DHT22;1298;51.252;6.802;2022-10-31T06:03:05;13.30;99.90
2577;DHT22;1298;51.252;6.802;2022-10-31T06:05:50;13.20;99.90
2577;DHT22;1298;51.252;6.802;2022-10-31T06:08:35;13.20;99.90
2577;DHT22;1298;51.252;6.802;2022-10-31T06:11:21;13.20;99.90
2577;DHT22;1298;51.252;6.802;2022-10-31T06:14:06;13.20;99.90
2577;DHT22;1298;51.252;6.802;2022-10-31T06:16:51;13.20;99.90
2577;DHT22;1298;51.252;6.802;2022-10-31T06:19:38;13.20;99.90
2577;DHT22;1298;51.252;6.802;2022-10-31T06:22:23;13.20;99.90
2577;DHT22;1298;51.252;6.802;2022-10-31T06:25:09;13.20;99.90
2577;DHT22;1298;51.252;6.802;2022-10-31T06:27:54;13.20;99.90
2577;DHT22;1298;51.252;6.802;2022-10-31T06:30:40;13.20;99.90
2577;DHT22;1298;51.252;6.802;2022-10-31T06:33:26;13.10;99.90
2577;DHT22;1298;51.252;6.802;2022-10-31T06:36:13;13.00;99.90
2577;DHT22;1298;51.252;6.802;2022-10-31T06:38:59;13.00;99.90
2577;DHT22;1298;51.252;6.802;2022-10-31T06:41:47;13.00;99.90
2577;DHT22;1298;51.252;6.802;2022-10-31T06:44:32;13.00;99.90
2577;DHT22;1298;51.252;6.802;2022-10-31T06:47:17;13.00;99.90
2577;DHT22;1298;51.252;6.802;2022-10-31T06:50:03;13.10;99.90
2577;DHT22;1298;51.252;6.802;2022-10-31T06:52:55;13.10;99.90
2577;DHT22;1298;51.252;6.802;2022-10-31T06:55:42;13.10;99.90
2577;DHT22;1298;51.252;6.802;2022-10-31T06:58:30;13.10;99.90
2577;DHT22;1298;51.252;6.802;2022-10-31T07:01:18;13.10;99.90
2577;DHT22;1298;51.252;6.802;2022-10-31T07:04:08;13.10;99.90
2577;DHT22;1298;51.252;6.802;2022-10-31T07:06:54;13.10;99.90
2577;DHT22;1298;51.252;6.802;2022-10-31T07:09:41;13.10;99.90
2577;DHT22;1298;51.252;6.802;2022-10-31T07:12:27;13.20;99.90
2577;DHT22;1298;51.252;6.802;2022-10-31T07:15:14;13.20;99.90
2577;DHT22;1298;51.252;6.802;2022-10-31T07:18:00;13.20;99.90
2577;DHT22;1298;51.252;6.802;2022-10-31T07:20:47;13.20;99.90
2577;DHT22;1298;51.252;6.802;2022-10-31T07:23:37;13.30;99.90
2577;DHT22;1298;51.252;6.802;2022-10-31T07:26:24;13.30;99.90
2577;DHT22;1298;51.252;6.802;2022-10-31T07:29:09;13.30;99.90
2577;DHT22;1298;51.252;6.802;2022-10-31T07:31:55;13.40;99.90
2577;DHT22;1298;51.252;6.802;2022-10-31T07:34:41;13.40;99.90
2577;DHT22;1298;51.252;6.802;2022-10-31T07:37:27;13.40;99.90
2577;DHT22;1298;51.252;6.802;2022-10-31T07:40:12;13.40;99.90
2577;DHT22;1298;51.252;6.802;2022-10-31T07:43:00;13.40;99.90
2577;DHT22;1298;51.252;6.802;2022-10-31T07:45:49;13.40;99.90
2577;DHT22;1298;51.252;6.802;2022-10-31T07:48:35;13.50;99.90
2577;DHT22;1298;51.252;6.802;2022-10-31T07:51:20;13.50;99.90
2577;DHT22;1298;51.252;6.802;2022-10-31T07:54:05;13.60;99.90
2577;DHT22;1298;51.252;6.802;2022-10-31T07:56:51;13.60;99.90
2577;DHT22;1298;51.252;6.802;2022-10-31T07:59:38;13.60;99.90
2577;DHT22;1298;51.252;6.802;2022-10-31T08:02:24;13.70;99.90
2577;DHT22;1298;51.252;6.802;2022-10-31T08:05:09;13.80;99.90
2577;DHT22;1298;51.252;6.802;2022-10-31T08:07:55;13.90;99.90
2577;DHT22;1298;51.252;6.802;2022-10-31T08:10:42;14.00;99.90
2577;DHT22;1298;51.252;6.802;2022-10-31T08:13:27;14.20;99.90
2577;DHT22;1298;51.252;6.802;2022-10-31T08:16:14;14.30;99.90
2577;DHT22;1298;51.252;6.802;2022-10-31T08:18:59;14.30;99.90
2577;DHT22;1298;51.252;6.802;2022-10-31T08:21:45;14.40;99.90
2577;DHT22;1298;51.252;6.802;2022-10-31T08:24:30;14.50;99.90
2577;DHT22;1298;51.252;6.802;2022-10-31T08:27:16;14.60;99.90
2577;DHT22;1298;51.252;6.802;2022-10-31T08:30:02;14.70;99.90
2577;DHT22;1298;51.252;6.802;2022-10-31T08:32:50;14.70;99.90
2577;DHT22;1298;51.252;6.802;2022-10-31T08:35:42;14.80;99.90
2577;DHT22;1298;51.252;6.802;2022-10-31T08:38:27;14.80;99.90
2577;DHT22;1298;51.252;6.802;2022-10-31T08:41:13;14.80;99.90
2577;DHT22;1298;51.252;6.802;2022-10-31T08:43:59;14.90;99.90
2577;DHT22;1298;51.252;6.802;2022-10-31T08:46:44;15.10;99.90
2577;DHT22;1298;51.252;6.802;2022-10-31T08:49:31;15.10;99.90
2577;DHT22;1298;51.252;6.802;2022-10-31T08:52:17;15.30;99.90
2577;DHT22;1298;51.252;6.802;2022-10-31T08:55:02;15.30;99.90
2577;DHT22;1298;51.252;6.802;2022-10-31T08:57:53;15.30;99.90
2577;DHT22;1298;51.252;6.802;2022-10-31T09:00:39;15.40;99.90
2577;DHT22;1298;51.252;6.802;2022-10-31T09:03:27;15.50;99.90
2577;DHT22;1298;51.252;6.802;2022-10-31T09:06:14;15.50;99.90
2577;DHT22;1298;51.252;6.802;2022-10-31T09:08:59;15.60;99.90
2577;DHT22;1298;51.252;6.802;2022-10-31T09:11:45;15.60;99.90
2577;DHT22;1298;51.252;6.802;2022-10-31T09:14:30;15.60;99.90
2577;DHT22;1298;51.252;6.802;2022-10-31T09:17:16;15.70;99.90
2577;DHT22;1298;51.252;6.802;2022-10-31T09:20:02;15.70;99.90
2577;DHT22;1298;51.252;6.802;2022-10-31T09:22:55;15.80;99.90
2577;DHT22;1298;51.252;6.802;2022-10-31T09:25:41;15.90;99.90
2577;DHT22;1298;51.252;6.802;2022-10-31T09:28:27;16.10;99.90
2577;DHT22;1298;51.252;6.802;2022-10-31T09:31:12;16.20;99.90
2577;DHT22;1298;51.252;6.802;2022-10-31T09:33:58;16.20;99.90
2577;DHT22;1298;51.252;6.802;2022-10-31T09:36:44;16.20;99.90
2577;DHT22;1298;51.252;6.802;2022-10-31T09:39:32;16.40;99.90
2577;DHT22;1298;51.252;6.802;2022-10-31T09:42:40;16.50;99.90
2577;DHT22;1298;51.252;6.802;2022-10-31T09:45:30;16.60;99.90
2577;DHT22;1298;51.252;6.802;2022-10-31T09:48:31;16.80;99.90
2577;DHT22;1298;51.252;6.802;2022-10-31T09:51:25;17.10;99.90
2577;DHT22;1298;51.252;6.802;2022-10-31T09:54:16;17.20;99.90
2577;DHT22;1298;51.252;6.802;2022-10-31T09:57:05;17.30;99.90
2577;DHT22;1298;51.252;6.802;2022-10-31T09:59:56;17.30;99.90
2577;DHT22;1298;51.252;6.802;2022-10-31T10:02:47;17.30;99.90
2577;DHT22;1298;51.252;6.802;2022-10-31T10:05:36;17.30;99.90
2577;DHT22;1298;51.252;6.802;2022-10-31T10:08:27;17.20;99.90
2577;DHT22;1298;51.252;6.802;2022-10-31T10:11:31;17.30;99.90
2577;DHT22;1298;51.252;6.802;2022-10-31T10:14:31;17.40;99.90
2577;DHT22;1298;51.252;6.802;2022-10-31T10:17:32;17.50;99.90
2577;DHT22;1298;51.252;6.802;2022-10-31T10:20:30;17.60;99.90
2577;DHT22;1298;51.252;6.802;2022-10-31T10:23:32;17.80;99.90
2577;DHT22;1298;51.252;6.802;2022-10-31T10:26:22;18.00;99.90
2577;DHT22;1298;51.252;6.802;2022-10-31T10:29:32;18.10;99.90
2577;DHT22;1298;51.252;6.802;2022-10-31T10:32:22;18.10;99.90
2577;DHT22;1298;51.252;6.802;2022-10-31T10:35:20;18.10;99.90
2577;DHT22;1298;51.252;6.802;2022-10-31T10:38:13;18.10;99.90
2577;DHT22;1298;51.252;6.802;2022-10-31T10:41:03;18.10;99.90
2577;DHT22;1298;51.252;6.802;2022-10-31T10:43:51;18.10;99.90
2577;DHT22;1298;51.252;6.802;2022-10-31T10:46:43;18.20;99.90
2577;DHT22;1298;51.252;6.802;2022-10-31T10:49:52;18.30;99.90
2577;DHT22;1298;51.252;6.802;2022-10-31T10:52:41;18.50;99.90
2577;DHT22;1298;51.252;6.802;2022-10-31T10:55:36;18.50;99.90
2577;DHT22;1298;51.252;6.802;2022-10-31T10:58:26;18.60;99.90
2577;DHT22;1298;51.252;6.802;2022-10-31T11:01:13;18.70;99.90
2577;DHT22;1298;51.252;6.802;2022-10-31T11:04:02;18.80;99.90
2577;DHT22;1298;51.252;6.802;2022-10-31T11:07:01;18.90;99.90
2577;DHT22;1298;51.252;6.802;2022-10-31T11:09:49;19.00;99.90
2577;DHT22;1298;51.252;6.802;2022-10-31T11:12:35;19.10;99.90
2577;DHT22;1298;51.252;6.802;2022-10-31T11:15:23;19.20;99.90
2577;DHT22;1298;51.252;6.802;2022-10-31T11:18:20;19.30;99.90
2577;DHT22;1298;51.252;6.802;2022-10-31T11:21:20;19.50;99.90
2577;DHT22;1298;51.252;6.802;2022-10-31T11:24:13;19.50;99.90
2577;DHT22;1298;51.252;6.802;2022-10-31T11:27:12;19.60;99.90
2577;DHT22;1298;51.252;6.802;2022-10-31T11:30:05;19.70;99.90
2577;DHT22;1298;51.252;6.802;2022-10-31T11:32:51;19.60;99.90
2577;DHT22;1298;51.252;6.802;2022-10-31T11:35:39;19.70;99.90
2577;DHT22;1298;51.252;6.802;2022-10-31T11:38:30;19.90;99.90
2577;DHT22;1298;51.252;6.802;2022-10-31T11:41:17;20.00;99.90
2577;DHT22;1298;51.252;6.802;2022-10-31T11:44:18;20.10;99.90
2577;DHT22;1298;51.252;6.802;2022-10-31T11:47:06;20.20;99.90
2577;DHT22;1298;51.252;6.802;2022-10-31T11:49:58;20.10;99.90
2577;DHT22;1298;51.252;6.802;2022-10-31T11:52:47;20.10;99.90
2577;DHT22;1298;51.252;6.802;2022-10-31T11:55:36;20.00;99.90
2577;DHT22;1298;51.252;6.802;2022-10-31T11:58:24;20.10;99.90
2577;DHT22;1298;51.252;6.802;2022-10-31T12:01:24;20.10;99.90
2577;DHT22;1298;51.252;6.802;2022-10-31T12:04:10;20.10;99.90
2577;DHT22;1298;51.252;6.802;2022-10-31T12:07:00;20.00;99.90
2577;DHT22;1298;51.252;6.802;2022-10-31T12:09:46;20.10;99.90
2577;DHT22;1298;51.252;6.802;2022-10-31T12:12:46;20.10;99.90
2577;DHT22;1298;51.252;6.802;2022-10-31T12:15:37;20.30;99.90
2577;DHT22;1298;51.252;6.802;2022-10-31T12:18:50;20.40;99.90
2577;DHT22;1298;51.252;6.802;2022-10-31T12:21:51;20.50;99.90
2577;DHT22;1298;51.252;6.802;2022-10-31T12:24:51;20.60;99.90
2577;DHT22;1298;51.252;6.802;2022-10-31T12:27:57;20.80;99.90
2577;DHT22;1298;51.252;6.802;2022-10-31T12:30:56;20.80;99.90
2577;DHT22;1298;51.252;6.802;2022-10-31T12:33:51;21.00;99.90
2577;DHT22;1298;51.252;6.802;2022-10-31T12:36:46;21.10;99.90
2577;DHT22;1298;51.252;6.802;2022-10-31T12:39:40;21.20;99.90
2577;DHT22;1298;51.252;6.802;2022-10-31T12:42:37;21.40;99.90
2577;DHT22;1298;51.252;6.802;2022-10-31T12:45:36;21.50;99.90
2577;DHT22;1298;51.252;6.802;2022-10-31T12:48:37;21.60;99.90
2577;DHT22;1298;51.252;6.802;2022-10-31T12:51:35;21.70;99.90
2577;DHT22;1298;51.252;6.802;2022-10-31T12:56:58;22.10;99.90
2577;DHT22;1298;51.252;6.802;2022-10-31T12:59:51;22.30;99.90
2577;DHT22;1298;51.252;6.802;2022-10-31T13:02:43;22.70;99.90
2577;DHT22;1298;51.252;6.802;2022-10-31T13:05:33;22.70;99.90
2577;DHT22;1298;51.252;6.802;2022-10-31T13:08:22;22.30;99.90
2577;DHT22;1298;51.252;6.802;2022-10-31T13:11:10;22.00;99.90
2577;DHT22;1298;51.252;6.802;2022-10-31T13:14:02;21.90;99.90
2577;DHT22;1298;51.252;6.802;2022-10-31T13:16:50;21.90;99.90
2577;DHT22;1298;51.252;6.802;2022-10-31T13:19:40;21.80;99.90
2577;DHT22;1298;51.252;6.802;2022-10-31T13:22:29;21.50;99.90
2577;DHT22;1298;51.252;6.802;2022-10-31T13:25:17;21.20;99.90
2577;DHT22;1298;51.252;6.802;2022-10-31T13:28:11;21.10;99.90
2577;DHT22;1298;51.252;6.802;2022-10-31T13:30:59;21.20;99.90
2577;DHT22;1298;51.252;6.802;2022-10-31T13:33:48;21.10;99.90
2577;DHT22;1298;51.252;6.802;2022-10-31T13:36:39;21.00;99.90
2577;DHT22;1298;51.252;6.802;2022-10-31T13:39:35;21.00;99.90
2577;DHT22;1298;51.252;6.802;2022-10-31T13:42:41;21.00;99.90
2577;DHT22;1298;51.252;6.802;2022-10-31T13:45:29;21.10;99.90
2577;DHT22;1298;51.252;6.802;2022-10-31T13:48:33;21.30;99.90
2577;DHT22;1298;51.252;6.802;2022-10-31T13:51:27;21.30;99.90
2577;DHT22;1298;51.252;6.802;2022-10-31T13:54:22;21.40;99.90
2577;DHT22;1298;51.252;6.802;2022-10-31T13:57:16;21.40;99.90
2577;DHT22;1298;51.252;6.802;2022-10-31T14:00:05;21.40;99.90
2577;DHT22;1298;51.252;6.802;2022-10-31T14:02:53;21.40;99.90
2577;DHT22;1298;51.252;6.802;2022-10-31T14:05:42;21.30;99.90
2577;DHT22;1298;51.252;6.802;2022-10-31T14:08:28;21.20;99.90
2577;DHT22;1298;51.252;6.802;2022-10-31T14:11:23;21.10;99.90
2577;DHT22;1298;51.252;6.802;2022-10-31T14:14:11;21.30;99.90
2577;DHT22;1298;51.252;6.802;2022-10-31T14:17:00;21.40;99.90
2577;DHT22;1298;51.252;6.802;2022-10-31T14:20:00;21.40;99.90
2577;DHT22;1298;51.252;6.802;2022-10-31T14:22:46;21.60;99.90
2577;DHT22;1298;51.252;6.802;2022-10-31T14:25:34;22.00;99.90
2577;DHT22;1298;51.252;6.802;2022-10-31T14:28:31;22.30;99.90
2577;DHT22;1298;51.252;6.802;2022-10-31T14:31:34;22.40;99.90
2577;DHT22;1298;51.252;6.802;2022-10-31T14:34:23;22.00;99.90
2577;DHT22;1298;51.252;6.802;2022-10-31T14:37:37;21.70;99.90
2577;DHT22;1298;51.252;6.802;2022-10-31T14:40:27;21.40;99.90
2577;DHT22;1298;51.252;6.802;2022-10-31T14:43:29;21.10;99.90
2577;DHT22;1298;51.252;6.802;2022-10-31T14:46:26;20.90;99.90
2577;DHT22;1298;51.252;6.802;2022-10-31T14:49:35;20.70;99.90
2577;DHT22;1298;51.252;6.802;2022-10-31T14:52:25;20.60;99.90
2577;DHT22;1298;51.252;6.802;2022-10-31T14:55:12;20.40;99.90
2577;DHT22;1298;51.252;6.802;2022-10-31T14:58:00;20.30;99.90
2577;DHT22;1298;51.252;6.802;2022-10-31T15:00:48;20.20;99.90
2577;DHT22;1298;51.252;6.802;2022-10-31T15:03:37;20.20;99.90
2577;DHT22;1298;51.252;6.802;2022-10-31T15:06:24;20.00;99.90
2577;DHT22;1298;51.252;6.802;2022-10-31T15:09:23;19.90;99.90
2577;DHT22;1298;51.252;6.802;2022-10-31T15:12:24;19.90;99.90
2577;DHT22;1298;51.252;6.802;2022-10-31T15:15:11;19.80;99.90
2577;DHT22;1298;51.252;6.802;2022-10-31T15:18:01;19.80;99.90
2577;DHT22;1298;51.252;6.802;2022-10-31T15:20:48;19.70;99.90
2577;DHT22;1298;51.252;6.802;2022-10-31T15:23:35;19.60;99.90
2577;DHT22;1298;51.252;6.802;2022-10-31T15:26:23;19.60;99.90
2577;DHT22;1298;51.252;6.802;2022-10-31T15:29:13;19.50;99.90
2577;DHT22;1298;51.252;6.802;2022-10-31T15:31:59;19.50;99.90
2577;DHT22;1298;51.252;6.802;2022-10-31T15:34:46;19.50;99.90
2577;DHT22;1298;51.252;6.802;2022-10-31T15:37:32;19.50;99.90
2577;DHT22;1298;51.252;6.802;2022-10-31T15:40:19;19.40;99.90
2577;DHT22;1298;51.252;6.802;2022-10-31T15:43:05;19.40;99.90
2577;DHT22;1298;51.252;6.802;2022-10-31T15:45:52;19.40;99.90
2577;DHT22;1298;51.252;6.802;2022-10-31T15:48:38;19.40;99.90
2577;DHT22;1298;51.252;6.802;2022-10-31T15:51:33;19.40;99.90
2577;DHT22;1298;51.252;6.802;2022-10-31T15:54:21;19.30;99.90
2577;DHT22;1298;51.252;6.802;2022-10-31T15:57:10;19.20;99.90
2577;DHT22;1298;51.252;6.802;2022-10-31T15:59:56;19.30;99.90
2577;DHT22;1298;51.252;6.802;2022-10-31T16:02:41;19.20;99.90
2577;DHT22;1298;51.252;6.802;2022-10-31T16:05:35;19.10;99.90
2577;DHT22;1298;51.252;6.802;2022-10-31T16:08:45;19.10;99.90
2577;DHT22;1298;51.252;6.802;2022-10-31T16:11:34;19.00;99.90
2577;DHT22;1298;51.252;6.802;2022-10-31T16:14:23;19.00;99.90
2577;DHT22;1298;51.252;6.802;2022-10-31T16:17:11;18.90;99.90
2577;DHT22;1298;51.252;6.802;2022-10-31T16:20:00;18.90;99.90
2577;DHT22;1298;51.252;6.802;2022-10-31T16:22:49;18.90;99.90
2577;DHT22;1298;51.252;6.802;2022-10-31T16:25:37;18.90;99.90
2577;DHT22;1298;51.252;6.802;2022-10-31T16:28:25;18.90;99.90
2577;DHT22;1298;51.252;6.802;2022-10-31T16:31:13;18.80;99.90
2577;DHT22;1298;51.252;6.802;2022-10-31T16:34:04;18.70;99.90
2577;DHT22;1298;51.252;6.802;2022-10-31T16:36:50;18.70;99.90
2577;DHT22;1298;51.252;6.802;2022-10-31T16:39:36;18.70;99.90
2577;DHT22;1298;51.252;6.802;2022-10-31T16:42:22;18.70;99.90
2577;DHT22;1298;51.252;6.802;2022-10-31T16:45:15;18.60;99.90
2577;DHT22;1298;51.252;6.802;2022-10-31T16:48:04;18.60;99.90
2577;DHT22;1298;51.252;6.802;2022-10-31T16:50:50;18.50;99.90
2577;DHT22;1298;51.252;6.802;2022-10-31T16:53:37;18.50;99.90
2577;DHT22;1298;51.252;6.802;2022-10-31T16:56:27;18.60;99.90
2577;DHT22;1298;51.252;6.802;2022-10-31T16:59:14;18.60;99.90
2577;DHT22;1298;51.252;6.802;2022-10-31T17:02:00;18.60;99.90
2577;DHT22;1298;51.252;6.802;2022-10-31T17:04:46;18.60;99.90
2577;DHT22;1298;51.252;6.802;2022-10-31T17:07:32;18.60;99.90
2577;DHT22;1298;51.252;6.802;2022-10-31T17:10:17;18.60;99.90
2577;DHT22;1298;51.252;6.802;2022-10-31T17:13:04;18.60;99.90
2577;DHT22;1298;51.252;6.802;2022-10-31T17:15:54;18.60;99.90
2577;DHT22;1298;51.252;6.802;2022-10-31T17:18:40;18.50;99.90
2577;DHT22;1298;51.252;6.802;2022-10-31T17:21:27;18.50;99.90
2577;DHT22;1298;51.252;6.802;2022-10-31T17:24:13;18.50;99.90
2577;DHT22;1298;51.252;6.802;2022-10-31T17:26:59;18.50;99.90
2577;DHT22;1298;51.252;6.802;2022-10-31T17:29:45;18.50;99.90
2577;DHT22;1298;51.252;6.802;2022-10-31T17:32:32;18.50;99.90
2577;DHT22;1298;51.252;6.802;2022-10-31T17:35:18;18.40;99.90
2577;DHT22;1298;51.252;6.802;2022-10-31T17:38:04;18.40;99.90
2577;DHT22;1298;51.252;6.802;2022-10-31T17:40:49;18.40;99.90
2577;DHT22;1298;51.252;6.802;2022-10-31T17:43:35;18.30;99.90
2577;DHT22;1298;51.252;6.802;2022-10-31T17:46:20;18.30;99.90
2577;DHT22;1298;51.252;6.802;2022-10-31T17:49:10;18.30;99.90
2577;DHT22;1298;51.252;6.802;2022-10-31T17:51:55;18.30;99.90
2577;DHT22;1298;51.252;6.802;2022-10-31T18:05:18;18.20;99.90
2577;DHT22;1298;51.252;6.802;2022-10-31T18:08:04;18.50;99.90
2577;DHT22;1298;51.252;6.802;2022-10-31T18:10:49;18.40;99.90
2577;DHT22;1298;51.252;6.802;2022-10-31T18:13:35;18.30;99.90
2577;DHT22;1298;51.252;6.802;2022-10-31T18:16:21;18.20;99.90
2577;DHT22;1298;51.252;6.802;2022-10-31T18:19:10;18.10;99.90
2577;DHT22;1298;51.252;6.802;2022-10-31T18:21:57;18.00;99.90
2577;DHT22;1298;51.252;6.802;2022-10-31T18:24:42;17.90;99.90
2577;DHT22;1298;51.252;6.802;2022-10-31T18:27:28;17.80;99.90
2577;DHT22;1298;51.252;6.802;2022-10-31T18:30:14;17.70;99.90
2577;DHT22;1298;51.252;6.802;2022-10-31T18:33:01;17.70;99.90
2577;DHT22;1298;51.252;6.802;2022-10-31T18:35:46;17.60;99.90
2577;DHT22;1298;51.252;6.802;2022-10-31T18:38:36;17.60;99.90